Time;durP1;ratioP1;P1;durP2;ratioP2;P2;SDS_P1;SDS_P2;PMS_P1;PMS_P2;Temp;Humidity;BMP_temperature;BMP_pressure;BME280_temperature;BME280_humidity;BME280_pressure;Samples;Min_cycle;Max_cycle;Signal;HPM_P1;HPM_P2
2023/04/12 00:01:36;;;;;;;5.97;2.10;;;;;;;-142.75;100.00;76595.88;4995050;28;20030;-65
2023/04/12 00:04:04;;;;;;;8.00;1.77;;;;;;;-142.75;100.00;76572.25;4994846;28;20026;-65
2023/04/12 00:06:33;;;;;;;8.90;2.67;;;;;;;-142.75;100.00;76566.34;4994695;28;20030;-65
2023/04/12 00:09:00;;;;;;;5.77;2.10;;;;;;;-142.75;100.00;76546.66;4994942;28;20490;-65
2023/04/12 00:11:27;;;;;;;6.90;2.63;;;;;;;-142.75;100.00;76558.47;4994908;28;20521;-65
2023/04/12 00:13:52;;;;;;;8.87;2.03;;;;;;;-142.75;100.00;76546.66;4994912;28;20536;-65
2023/04/12 00:16:18;;;;;;;8.00;2.30;;;;;;;-142.75;100.00;76546.66;4977587;28;20117;-65
2023/04/12 00:18:44;;;;;;;6.23;3.00;;;;;;;-142.75;100.00;76532.88;4994727;28;20414;-65
2023/04/12 00:21:10;;;;;;;6.47;2.03;;;;;;;-142.75;100.00;76519.13;4994557;28;20027;-65
2023/04/12 00:23:36;;;;;;;3.20;1.70;;;;;;;-142.75;100.00;76519.13;4994504;28;20518;-64
2023/04/12 00:26:02;;;;;;;7.40;2.00;;;;;;;-142.75;100.00;76519.13;4993759;28;20109;-65
2023/04/12 00:28:28;;;;;;;3.53;1.60;;;;;;;-142.75;100.00;76519.13;4994372;28;20076;-65
2023/04/12 00:30:53;;;;;;;6.10;2.30;;;;;;;-142.75;100.00;76509.28;4994499;28;20478;-66
2023/04/12 00:33:19;;;;;;;5.40;1.73;;;;;;;-142.75;100.00;76489.59;4994342;28;20113;-65
2023/04/12 00:35:46;;;;;;;8.37;1.80;;;;;;;-142.75;100.00;76493.53;4976907;28;20030;-65
2023/04/12 00:38:13;;;;;;;7.37;2.57;;;;;;;-142.75;100.00;76491.56;4994316;28;20395;-66
2023/04/12 00:40:42;;;;;;;5.13;1.50;;;;;;;-142.75;100.00;76483.69;4976901;28;20018;-65
2023/04/12 00:43:09;;;;;;;4.60;1.77;;;;;;;-142.75;100.00;76471.88;4976768;28;20037;-66
2023/04/12 00:45:36;;;;;;;3.37;1.60;;;;;;;-142.75;100.00;76460.06;4994116;28;20030;-65
2023/04/12 00:48:02;;;;;;;4.00;1.70;;;;;;;-142.75;100.00;76467.94;4994302;28;20481;-66
2023/04/12 00:50:27;;;;;;;3.17;1.43;;;;;;;-142.75;100.00;76456.13;4994066;28;20033;-66
2023/04/12 00:52:54;;;;;;;4.40;1.37;;;;;;;-142.75;100.00;76446.28;4976629;28;20034;-65
2023/04/12 00:55:19;;;;;;;3.70;1.20;;;;;;;-142.75;100.00;76448.25;4994006;28;20053;-65
2023/04/12 00:57:45;;;;;;;2.93;1.20;;;;;;;-142.75;100.00;76430.53;4993975;28;20124;-65
2023/04/12 01:00:11;;;;;;;3.53;1.53;;;;;;;-142.75;100.00;76416.75;4993866;28;20022;-65
2023/04/12 01:02:40;;;;;;;4.20;1.87;;;;;;;-142.75;100.00;76438.41;4993823;28;20104;-65
2023/04/12 01:05:06;;;;;;;3.83;1.30;;;;;;;-142.75;100.00;76410.84;4993756;28;20052;-66
2023/04/12 01:08:00;;;;;;;3.27;1.50;;;;;;;-142.75;100.00;76406.91;4976276;28;20032;-65
2023/04/12 01:10:37;;;;;;;3.97;1.67;;;;;;;-142.75;100.00;76402.97;4993871;28;20023;-65
2023/04/12 01:13:27;;;;;;;5.10;1.47;;;;;;;-142.75;100.00;76397.06;4993545;28;20030;-64
2023/04/12 01:16:14;;;;;;;4.37;1.80;;;;;;;-142.75;100.00;76406.91;4993470;28;20100;-65
2023/04/12 01:18:44;;;;;;;6.40;1.67;;;;;;;-142.75;100.00;76389.19;4993421;28;20383;-64
2023/04/12 01:21:15;;;;;;;6.83;1.40;;;;;;;-142.75;100.00;76391.16;4993568;28;20027;-65
2023/04/12 01:23:52;;;;;;;3.70;1.50;;;;;;;-142.75;100.00;76401.00;4993073;28;20058;-65
2023/04/12 01:26:39;;;;;;;4.10;1.57;;;;;;;-142.75;100.00;76375.41;4993307;28;20594;-65
2023/04/12 01:29:09;;;;;;;;;;;;;;;-142.75;100.00;76371.47;4993812;28;20033;-65
2023/04/12 01:31:35;;;;;;;4.73;1.10;;;;;;;-142.75;100.00;76365.56;4975928;28;19929;-65
2023/04/12 01:34:03;;;;;;;2.27;0.93;;;;;;;-142.75;100.00;76369.50;4993169;28;20034;-65
2023/04/12 01:36:29;;;;;;;2.70;0.90;;;;;;;-142.75;100.00;76369.50;4993373;28;20081;-65
2023/04/12 01:38:56;;;;;;;9.97;1.50;;;;;;;-142.75;100.00;76367.53;4992554;28;20486;-65
2023/04/12 01:41:21;;;;;;;4.67;1.70;;;;;;;-142.75;100.00;76365.56;4993411;28;20048;-65
2023/04/12 01:43:47;;;;;;;2.30;1.10;;;;;;;-142.75;100.00;76355.72;4992924;28;20510;-65
2023/04/12 01:46:15;;;;;;;4.00;1.20;;;;;;;-142.75;100.00;76357.69;4993098;28;20050;-66
2023/04/12 01:48:53;;;;;;;5.10;1.07;;;;;;;-142.75;100.00;76322.28;4992942;28;20073;-65
2023/04/12 01:51:46;;;;;;;1.93;1.10;;;;;;;-142.75;100.00;76326.22;4975598;28;20398;-64
2023/04/12 01:54:20;;;;;;;5.83;1.23;;;;;;;-142.75;100.00;76328.19;4993179;28;20030;-65
2023/04/12 01:56:51;;;;;;;5.47;1.30;;;;;;;-142.75;100.00;76310.47;5009333;28;20478;-65
2023/04/12 01:59:18;;;;;;;2.07;1.20;;;;;;;-142.75;100.00;76304.56;5012450;28;20060;-66
2023/04/12 02:01:45;;;;;;;8.43;1.90;;;;;;;-142.75;100.00;76308.50;5012791;28;20567;-65
2023/04/12 02:04:13;;;;;;;3.20;1.30;;;;;;;-142.75;100.00;76294.72;5012858;28;20061;-66
2023/04/12 02:06:40;;;;;;;4.17;1.43;;;;;;;-142.75;100.00;76298.66;5012601;28;20022;-66
2023/04/12 02:09:05;;;;;;;4.93;1.20;;;;;;;-142.75;100.00;76288.81;5012664;28;20120;-65
2023/04/12 02:11:31;;;;;;;4.27;1.30;;;;;;;-142.75;100.00;76269.13;5012455;28;20104;-66
2023/04/12 02:13:56;;;;;;;5.10;1.27;;;;;;;-142.75;100.00;76273.06;5012356;28;20026;-65
2023/04/12 02:16:22;;;;;;;2.43;1.33;;;;;;;-142.75;100.00;76259.28;5012452;28;20034;-65
2023/04/12 02:18:49;;;;;;;6.17;1.20;;;;;;;-142.75;100.00;76247.47;5012413;28;20481;-65
2023/04/12 02:21:14;;;;;;;3.00;1.30;;;;;;;-142.75;100.00;76257.31;5012672;28;20155;-65
2023/04/12 02:23:40;;;;;;;4.73;1.60;;;;;;;-142.75;100.00;76249.44;5012462;28;20076;-65
2023/04/12 02:26:06;;;;;;;3.87;1.37;;;;;;;-142.75;100.00;76239.59;5011912;28;20038;-65
2023/04/12 02:28:33;;;;;;;3.40;1.50;;;;;;;-142.75;100.00;76235.66;5012062;28;20037;-65
2023/04/12 02:30:58;;;;;;;5.10;1.73;;;;;;;-142.75;100.00;76239.59;5012872;28;20504;-66
2023/04/12 02:33:24;;;;;;;4.40;1.33;;;;;;;-142.75;100.00;76215.97;5012181;28;20030;-66
2023/04/12 02:35:50;;;;;;;4.20;1.50;;;;;;;-142.75;100.00;76202.19;5012300;28;20026;-65
2023/04/12 02:38:16;;;;;;;4.73;1.80;;;;;;;-142.75;100.00;76198.28;5011707;28;20045;-65
2023/04/12 02:40:41;;;;;;;3.27;1.60;;;;;;;-142.75;100.00;76212.03;5012130;28;20021;-65
2023/04/12 02:43:07;;;;;;;3.43;1.53;;;;;;;-142.75;100.00;76200.25;5011972;28;20052;-66
2023/04/12 02:45:32;;;;;;;3.13;1.30;;;;;;;-142.75;100.00;76190.41;5012292;28;20025;-65
2023/04/12 02:47:57;;;;;;;3.43;1.40;;;;;;;-142.75;100.00;76190.41;5012446;28;20371;-65
2023/04/12 02:50:23;;;;;;;5.30;1.60;;;;;;;-142.75;100.00;76188.44;5015585;28;20540;-65
2023/04/12 02:52:48;;;;;;;8.03;1.93;;;;;;;-142.75;100.00;76182.53;5016601;28;20433;-65
2023/04/12 02:55:14;;;;;;;6.50;1.67;;;;;;;-142.75;100.00;76178.59;5015364;28;20112;-65
2023/04/12 02:57:40;;;;;;;4.03;1.73;;;;;;;-142.75;100.00;76160.88;5015881;28;20060;-65
2023/04/12 03:00:10;;;;;;;3.50;1.30;;;;;;;-142.75;100.00;76151.03;5015906;28;20048;-65
2023/04/12 03:02:36;;;;;;;3.23;1.60;;;;;;;-142.75;100.00;76170.72;5016535;28;20201;-65
2023/04/12 03:05:02;;;;;;;4.27;1.43;;;;;;;-142.75;100.00;76151.03;5016034;28;20108;-65
2023/04/12 03:07:29;;;;;;;5.57;1.33;;;;;;;-142.75;100.00;76135.28;5016066;28;20037;-65
2023/04/12 03:09:54;;;;;;;3.00;1.43;;;;;;;-142.75;100.00;76129.38;5015824;28;20397;-65
2023/04/12 03:12:20;;;;;;;4.10;1.30;;;;;;;-142.75;100.00;76139.22;5015656;28;20036;-65
2023/04/12 03:14:45;;;;;;;3.40;1.37;;;;;;;-142.75;100.00;76129.38;5015358;28;20152;-65
2023/04/12 03:17:10;;;;;;;4.97;1.57;;;;;;;-142.75;100.00;76115.59;5015629;28;20037;-65
2023/04/12 03:19:36;;;;;;;4.20;1.73;;;;;;;-142.75;100.00;76105.75;5015839;28;20026;-65
2023/04/12 03:22:03;;;;;;;3.47;1.50;;;;;;;-142.75;100.00;76109.69;5015958;28;20030;-65
2023/04/12 03:24:28;;;;;;;3.97;1.30;;;;;;;-142.75;100.00;76101.81;5015474;28;20056;-65
2023/04/12 03:26:54;;;;;;;7.13;1.47;;;;;;;-142.75;100.00;76101.81;4998215;28;20065;-65
2023/04/12 03:29:19;;;;;;;3.87;1.57;;;;;;;-142.75;100.00;76101.81;5015566;28;20117;-67
2023/04/12 03:31:45;;;;;;;2.40;1.10;;;;;;;-142.75;100.00;76088.03;5015937;28;20030;-64
2023/04/12 03:34:10;;;;;;;3.17;1.40;;;;;;;-142.75;100.00;76093.94;5013987;28;20030;-66
2023/04/12 03:36:36;;;;;;;5.80;1.77;;;;;;;-142.75;100.00;76097.88;5015188;28;20092;-66
2023/04/12 03:39:02;;;;;;;2.53;1.30;;;;;;;-142.75;100.00;76074.25;5014935;28;20115;-65
2023/04/12 03:41:28;;;;;;;5.30;1.83;;;;;;;-142.75;100.00;76058.53;5015127;28;20103;-66
2023/04/12 03:43:53;;;;;;;3.53;1.37;;;;;;;-142.75;100.00;76070.34;5014874;28;20054;-66
2023/04/12 03:46:20;;;;;;;2.67;1.60;;;;;;;-142.75;100.00;76080.16;5014889;28;20029;-66
2023/04/12 03:48:45;;;;;;;2.83;1.67;;;;;;;-142.75;100.00;76066.41;5014952;28;20116;-66
2023/04/12 03:51:11;;;;;;;4.57;1.40;;;;;;;-142.75;100.00;76066.41;5015242;28;20105;-66
2023/04/12 03:53:39;;;;;;;2.63;1.93;;;;;;;-142.75;100.00;76050.66;5014765;28;20053;-65
2023/04/12 03:56:05;;;;;;;5.70;1.20;;;;;;;-142.75;100.00;76034.91;5014725;28;20033;-65
2023/04/12 03:58:32;;;;;;;5.33;1.73;;;;;;;-142.75;100.00;76021.13;5015267;28;20389;-65
2023/04/12 04:01:00;;;;;;;2.43;1.53;;;;;;;-142.75;100.00;76038.84;5013992;28;20133;-66
2023/04/12 04:03:28;;;;;;;3.70;1.30;;;;;;;-142.75;100.00;76030.97;5014514;28;20108;-65
2023/04/12 04:05:54;;;;;;;4.27;1.40;;;;;;;-142.75;100.00;76032.94;5014762;28;20482;-65
2023/04/12 04:08:19;;;;;;;2.90;1.30;;;;;;;-142.75;100.00;76030.97;5014401;28;20026;-65
2023/04/12 04:10:45;;;;;;;3.97;1.60;;;;;;;-142.75;100.00;76030.97;5014201;28;20030;-66
2023/04/12 04:13:10;;;;;;;2.67;1.53;;;;;;;-142.75;100.00;76027.03;5014215;28;20037;-66
2023/04/12 04:15:35;;;;;;;4.80;1.73;;;;;;;-142.75;100.00;76019.16;4996925;28;20030;-66
2023/04/12 04:18:04;;;;;;;3.83;1.57;;;;;;;-142.75;100.00;76009.31;5014528;28;20026;-66
2023/04/12 04:20:30;;;;;;;5.80;1.57;;;;;;;-142.75;100.00;76023.09;4996991;28;20030;-65
2023/04/12 04:22:56;;;;;;;4.00;1.97;;;;;;;-142.75;100.00;76017.19;5013923;28;20037;-65
2023/04/12 04:25:28;;;;;;;2.73;1.70;;;;;;;-142.75;100.00;76019.16;4996948;28;20030;-66
2023/04/12 04:27:54;;;;;;;5.40;1.90;;;;;;;-142.75;100.00;76005.38;5014294;28;20030;-65
2023/04/12 04:30:21;;;;;;;3.40;2.27;;;;;;;-142.75;100.00;75995.53;5014503;28;20500;-66
2023/04/12 04:32:47;;;;;;;4.07;2.67;;;;;;;-142.75;100.00;76001.44;5013957;28;20512;-65
2023/04/12 04:35:15;;;;;;;3.87;2.03;;;;;;;-142.75;100.00;76019.16;4996755;28;20058;-64
2023/04/12 04:37:41;;;;;;;5.27;2.50;;;;;;;-142.75;100.00;76017.19;5013775;28;20040;-65
2023/04/12 04:40:07;;;;;;;5.00;2.80;;;;;;;-142.75;100.00;76015.22;5013915;28;20022;-64
2023/04/12 04:42:32;;;;;;;3.77;2.67;;;;;;;-142.75;100.00;76023.09;5014171;28;20532;-66
2023/04/12 04:45:11;;;;;;;4.87;3.00;;;;;;;-142.75;100.00;76003.41;5013829;28;20058;-66
2023/04/12 04:47:36;;;;;;;4.43;3.10;;;;;;;-142.75;100.00;75993.56;4996198;28;20036;-65
2023/04/12 04:50:02;;;;;;;9.17;3.90;;;;;;;-142.75;100.00;75985.69;5013586;28;20056;-65
2023/04/12 04:52:27;;;;;;;5.47;3.40;;;;;;;-142.75;100.00;75979.78;5013946;28;20525;-65
2023/04/12 04:54:56;;;;;;;7.93;3.90;;;;;;;-142.75;100.00;75987.66;5013672;28;20041;-65
2023/04/12 04:57:21;;;;;;;8.50;4.30;;;;;;;-142.75;100.00;75985.69;5013606;28;20068;-64
2023/04/12 04:59:47;;;;;;;8.20;4.33;;;;;;;-142.75;100.00;75977.81;5013583;28;20053;-66
2023/04/12 05:02:12;;;;;;;6.07;4.20;;;;;;;-142.75;100.00;75967.97;5013500;28;20030;-65
2023/04/12 05:04:37;;;;;;;7.53;3.93;;;;;;;-142.75;100.00;75964.03;5013261;28;20030;-65
2023/04/12 05:07:03;;;;;;;5.83;3.73;;;;;;;-142.75;100.00;75950.28;5013168;28;20029;-65
2023/04/12 05:09:28;;;;;;;6.67;4.17;;;;;;;-142.75;100.00;75946.34;5013042;28;20022;-66
2023/04/12 05:11:53;;;;;;;8.00;4.10;;;;;;;-142.75;100.00;75934.53;5013071;28;20030;-66
2023/04/12 05:14:19;;;;;;;6.93;4.40;;;;;;;-142.75;100.00;75924.69;5013252;28;20045;-66
2023/04/12 05:16:44;;;;;;;9.37;5.37;;;;;;;-142.75;100.00;75932.56;5012907;28;20026;-66
2023/04/12 05:19:10;;;;;;;7.10;4.60;;;;;;;-142.75;100.00;75920.75;5013028;28;20026;-66
2023/04/12 05:21:35;;;;;;;8.27;4.50;;;;;;;-142.75;100.00;75916.81;5013118;28;20057;-66
2023/04/12 05:24:00;;;;;;;9.93;4.60;;;;;;;-142.75;100.00;75930.59;5012841;28;20030;-66
2023/04/12 05:26:26;;;;;;;10.43;4.70;;;;;;;-142.75;100.00;75926.66;5012722;28;20482;-66
2023/04/12 05:28:51;;;;;;;11.23;4.40;;;;;;;-142.75;100.00;75908.94;5012923;28;20484;-66
2023/04/12 05:31:17;;;;;;;10.47;4.60;;;;;;;-142.75;100.00;75905.00;4995453;28;20029;-66
2023/04/12 05:33:43;;;;;;;11.17;4.33;;;;;;;-142.75;100.00;75897.13;5012736;28;20498;-65
2023/04/12 05:36:09;;;;;;;7.97;3.77;;;;;;;-142.75;100.00;75887.28;5012670;28;20113;-65
2023/04/12 05:38:35;;;;;;;12.40;4.57;;;;;;;-142.75;100.00;75885.31;5012781;28;20100;-66
2023/04/12 05:41:03;;;;;;;9.87;4.00;;;;;;;-142.75;100.00;75885.31;5011497;28;20577;-66
2023/04/12 05:43:29;;;;;;;7.30;3.93;;;;;;;-142.75;100.00;75873.50;5012666;28;20082;-66
2023/04/12 05:45:54;;;;;;;9.27;3.80;;;;;;;-142.75;100.00;75881.38;5012642;28;20037;-66
2023/04/12 05:48:20;;;;;;;12.30;4.60;;;;;;;-142.75;100.00;75879.41;5011890;28;20030;-66
2023/04/12 05:50:52;;;;;;;8.53;3.97;;;;;;;-142.75;100.00;75857.78;5007071;28;20483;-66
2023/04/12 05:53:18;;;;;;;12.43;3.63;;;;;;;-142.75;100.00;75851.88;5008932;28;20034;-66
2023/04/12 05:55:44;;;;;;;11.20;3.93;;;;;;;-142.75;100.00;75845.97;5012572;28;20022;-65
2023/04/12 05:58:09;;;;;;;8.27;3.93;;;;;;;-142.75;100.00;75845.97;5012111;28;20022;-66
2023/04/12 06:00:35;;;;;;;14.63;3.60;;;;;;;-142.75;100.00;75838.09;5010002;28;20052;-66
2023/04/12 06:03:01;;;;;;;10.60;3.53;;;;;;;-142.75;100.00;75847.94;5011902;28;20505;-65
2023/04/12 06:05:26;;;;;;;11.17;3.50;;;;;;;-142.75;100.00;75853.84;5022667;28;20022;-66
2023/04/12 06:07:52;;;;;;;13.60;3.53;;;;;;;-142.75;100.00;75861.69;5013756;28;20083;-66
2023/04/12 06:10:17;;;;;;;15.60;3.15;;;;;;;-142.75;100.00;75851.88;5031973;28;20033;-66
2023/04/12 06:12:43;;;;;;;20.37;2.73;;;;;;;-142.75;100.00;75855.81;5031951;28;20022;-66
2023/04/12 06:15:09;;;;;;;12.43;2.47;;;;;;;-142.75;100.00;75859.72;5031637;28;20083;-66
2023/04/12 06:17:35;;;;;;;14.23;2.20;;;;;;;-142.75;100.00;75865.63;5032110;28;20026;-65
2023/04/12 06:20:04;;;;;;;14.00;2.10;;;;;;;-142.75;100.00;75857.78;5031939;28;20281;-65
2023/04/12 06:22:30;;;;;;;14.07;2.17;;;;;;;-142.75;100.00;75847.94;5031766;28;20400;-65
2023/04/12 06:24:55;;;;;;;16.00;2.30;;;;;;;-142.75;100.00;75845.97;5030917;28;20029;-66
2023/04/12 06:27:21;;;;;;;10.93;2.10;;;;;;;-142.75;100.00;75845.97;5030972;28;20488;-65
2023/04/12 06:29:46;;;;;;;15.70;2.70;;;;;;;-142.75;100.00;75842.03;5031723;28;20088;-65
2023/04/12 06:32:12;;;;;;;10.52;2.22;;;;;;;-142.75;100.00;75834.16;5031777;28;20022;-65
2023/04/12 06:34:37;;;;;;;11.13;2.17;;;;;;;-142.75;100.00;75836.13;5029955;28;20424;-65
2023/04/12 06:37:02;;;;;;;9.48;1.90;;;;;;;-142.75;100.00;75820.38;5031450;28;20032;-66
2023/04/12 06:39:27;;;;;;;13.18;2.75;;;;;;;-142.75;100.00;75826.28;5031718;28;20100;-64
2023/04/12 06:41:54;;;;;;;15.90;2.10;;;;;;;-142.75;100.00;75836.13;5030416;28;20029;-65
2023/04/12 06:44:19;;;;;;;13.85;3.03;;;;;;;-142.75;100.00;75838.09;5031636;28;20104;-65
2023/04/12 06:46:45;;;;;;;15.57;2.60;;;;;;;-142.75;100.00;75845.97;5031156;28;20612;-65
2023/04/12 06:49:10;;;;;;;14.98;2.58;;;;;;;-142.75;100.00;75844.00;5013814;28;20025;-65
2023/04/12 06:51:35;;;;;;;14.50;2.63;;;;;;;-142.75;100.00;75849.91;5031457;28;20064;-66
2023/04/12 06:54:01;;;;;;;11.75;2.30;;;;;;;-142.75;100.00;75859.72;5027688;28;20120;-64
2023/04/12 06:56:26;;;;;;;12.07;2.63;;;;;;;-142.75;100.00;75853.84;5002552;28;20107;-66
2023/04/12 06:58:52;;;;;;;26.60;2.85;;;;;;;-142.75;100.00;75855.81;5009582;28;20021;-66
2023/04/12 07:01:17;;;;;;;15.65;1.88;;;;;;;-142.75;100.00;75861.69;5010209;28;20057;-65
2023/04/12 07:03:42;;;;;;;22.98;3.17;;;;;;;-142.75;100.00;75873.50;4996761;28;20034;-66
2023/04/12 07:06:08;;;;;;;20.08;2.50;;;;;;;-142.75;100.00;75897.13;5011181;28;20104;-65
2023/04/12 07:08:34;;;;;;;20.20;2.55;;;;;;;-142.75;100.00;75916.81;4984397;28;20019;-65
2023/04/12 07:11:00;;;;;;;16.50;3.00;;;;;;;-142.75;100.00;75932.56;5006814;28;20398;-65
2023/04/12 07:13:26;;;;;;;16.67;2.13;;;;;;;-142.75;100.00;75932.56;4998292;28;20034;-64
2023/04/12 07:15:52;;;;;;;22.80;3.03;;;;;;;-142.75;100.00;75936.50;4987181;28;20133;-65
2023/04/12 07:18:17;;;;;;;15.97;3.27;;;;;;;-142.75;100.00;75916.81;5014751;28;20034;-65
2023/04/12 07:20:42;;;;;;;18.97;2.53;;;;;;;-142.75;100.00;75899.09;5002895;28;20023;-65
2023/04/12 07:23:08;;;;;;;17.70;2.70;;;;;;;-142.75;100.00;75865.63;5006935;28;20420;-65
2023/04/12 07:25:37;;;;;;;18.38;2.95;;;;;;;-142.75;100.00;75849.91;5000537;28;20030;-66
2023/04/12 07:28:03;;;;;;;13.57;2.70;;;;;;;-142.75;100.00;75857.78;5011635;28;20087;-66
2023/04/12 07:30:28;;;;;;;22.73;3.58;;;;;;;-142.75;100.00;75871.53;5009696;28;20449;-65
2023/04/12 07:32:54;;;;;;;16.77;3.30;;;;;;;-142.75;100.00;75879.41;5001867;28;20109;-65
2023/04/12 07:35:19;;;;;;;14.32;2.45;;;;;;;-142.75;100.00;75871.53;4997038;28;20034;-67
2023/04/12 07:37:45;;;;;;;17.77;2.58;;;;;;;-142.75;100.00;75786.91;5003209;28;20022;-66
2023/04/12 07:40:10;;;;;;;14.50;2.22;;;;;;;-142.75;100.00;75725.91;5005169;28;20022;-66
2023/04/12 07:42:36;;;;;;;21.80;2.95;;;;;;;-142.75;100.00;75672.78;5007219;28;20026;-67
2023/04/12 07:45:01;;;;;;;24.88;3.20;;;;;;;-142.75;100.00;75609.78;4995530;28;20030;-66
2023/04/12 07:47:26;;;;;;;27.92;3.45;;;;;;;-142.75;100.00;75562.56;5001145;28;20080;-66
2023/04/12 07:49:52;;;;;;;15.93;2.60;;;;;;;-142.75;100.00;75558.63;5004676;28;20030;-67
2023/04/12 07:52:17;;;;;;;13.90;2.55;;;;;;;-142.75;100.00;75574.38;5009425;28;20437;-65
2023/04/12 07:54:42;;;;;;;12.75;2.13;;;;;;;-142.75;100.00;75574.38;5012984;28;20393;-65
2023/04/12 07:57:08;;;;;;;15.88;2.67;;;;;;;-142.75;100.00;75594.06;5013152;28;20477;-65
2023/04/12 07:59:34;;;;;;;15.95;2.78;;;;;;;-142.75;100.00;75619.63;5005780;28;20018;-66
2023/04/12 08:02:00;;;;;;;17.27;2.72;;;;;;;-142.75;100.00;75633.41;5014671;28;20034;-66
2023/04/12 08:04:27;;;;;;;12.65;2.10;;;;;;;-142.75;100.00;75603.88;5014277;28;20026;-65
2023/04/12 08:06:54;;;;;;;12.15;1.70;;;;;;;-142.75;100.00;75566.50;5014263;28;20029;-65
2023/04/12 08:09:19;;;;;;;16.38;2.08;;;;;;;-142.75;100.00;75596.00;5014340;28;20072;-65
2023/04/12 08:11:46;;;;;;;15.48;2.08;;;;;;;-142.75;100.00;75558.63;5002104;28;20101;-65
2023/04/12 08:14:12;;;;;;;12.95;1.85;;;;;;;-142.75;100.00;75588.16;4994501;28;20075;-62
2023/04/12 08:16:37;;;;;;;9.73;1.98;;;;;;;-142.75;100.00;75664.91;4994165;28;20109;-63
2023/04/12 08:19:03;;;;;;;11.85;2.08;;;;;;;-142.75;100.00;75686.53;4994640;28;20552;-63
2023/04/12 08:21:28;;;;;;;10.80;1.60;;;;;;;-142.75;100.00;75718.03;4994474;28;20030;-65
2023/04/12 08:23:54;;;;;;;8.88;2.08;;;;;;;-142.75;100.00;75664.91;4994162;28;20083;-65
2023/04/12 08:26:20;;;;;;;13.55;1.85;;;;;;;-142.75;100.00;75651.13;4976870;28;20031;-64
2023/04/12 08:28:46;;;;;;;19.23;3.55;;;;;;;-142.75;100.00;75666.88;4994275;28;20037;-66
2023/04/12 08:31:11;;;;;;;20.20;2.00;;;;;;;-142.75;100.00;75696.38;4994511;28;20026;-66
2023/04/12 08:33:37;;;;;;;11.57;2.15;;;;;;;-142.75;100.00;75720.00;4994364;28;20575;-66
2023/04/12 08:36:02;;;;;;;12.18;1.70;;;;;;;-142.75;100.00;75708.19;4976884;28;20022;-66
2023/04/12 08:38:28;;;;;;;19.30;2.22;;;;;;;-142.75;100.00;75696.38;4994209;28;20106;-66
2023/04/12 08:40:53;;;;;;;10.63;1.48;;;;;;;-142.75;100.00;75714.09;4994317;28;20081;-66
2023/04/12 08:43:21;;;;;;;16.10;2.67;;;;;;;-142.75;100.00;75723.94;4994145;28;20045;-65
2023/04/12 08:45:47;;;;;;;12.07;2.70;;;;;;;-142.75;100.00;75723.94;4976756;28;20031;-66
2023/04/12 08:48:15;;;;;;;17.70;2.72;;;;;;;-142.75;100.00;75692.44;4993495;28;20379;-65
2023/04/12 08:50:43;;;;;;;17.83;2.22;;;;;;;-142.75;100.00;75657.03;4994031;28;20105;-66
2023/04/12 08:53:09;;;;;;;17.38;2.47;;;;;;;-142.75;100.00;75688.50;4994291;28;20363;-66
2023/04/12 08:55:35;;;;;;;18.17;2.75;;;;;;;-142.75;100.00;75720.00;4994014;28;20033;-66
2023/04/12 08:58:06;;;;;;;14.13;2.30;;;;;;;-142.75;100.00;75702.28;4993791;28;20022;-66
2023/04/12 09:00:32;;;;;;;13.80;2.00;;;;;;;-142.75;100.00;75731.81;4994028;28;20097;-65
2023/04/12 09:02:57;;;;;;;14.27;2.00;;;;;;;-142.75;100.00;75767.22;4994018;28;20486;-65
2023/04/12 09:05:28;;;;;;;13.30;1.92;;;;;;;-142.75;100.00;75761.34;4996334;28;20025;-65
2023/04/12 09:07:54;;;;;;;14.18;2.60;;;;;;;-142.75;100.00;75757.41;4998127;28;20026;-65
2023/04/12 09:10:31;;;;;;;9.95;1.58;;;;;;;-142.75;100.00;75731.81;4993688;28;20088;-65
2023/04/12 09:12:57;;;;;;;15.77;2.10;;;;;;;-142.75;100.00;75747.56;4993391;28;20053;-66
2023/04/12 09:15:22;;;;;;;16.55;2.33;;;;;;;-142.75;100.00;75741.66;4976090;28;20084;-65
2023/04/12 09:17:48;;;;;;;12.98;2.53;;;;;;;-142.75;100.00;75753.47;4975982;28;20030;-65
2023/04/12 09:20:16;;;;;;;18.60;1.83;;;;;;;-142.75;100.00;75751.50;5004973;28;20018;-66
2023/04/12 09:22:44;;;;;;;10.00;1.52;;;;;;;-142.75;100.00;75739.69;5007615;28;20085;-66
2023/04/12 09:25:09;;;;;;;12.95;2.17;;;;;;;-142.75;100.00;75749.53;5012986;28;20022;-66
2023/04/12 09:27:46;;;;;;;18.15;2.08;;;;;;;-142.75;100.00;75672.78;5012882;28;20036;-66
2023/04/12 09:30:11;;;;;;;9.63;1.73;;;;;;;-142.75;100.00;75637.34;5012996;28;20038;-66
2023/04/12 09:32:37;;;;;;;17.77;3.40;;;;;;;-142.75;100.00;75682.59;5012868;28;20473;-66
2023/04/12 09:35:04;;;;;;;18.73;1.98;;;;;;;-142.75;100.00;75664.91;5012896;28;20076;-64
2023/04/12 09:37:30;;;;;;;16.67;1.42;;;;;;;-142.75;100.00;75676.69;5013421;28;20029;-65
2023/04/12 09:40:07;;;;;;;16.15;2.25;;;;;;;-142.75;100.00;75684.56;5013873;28;20033;-66
2023/04/12 09:42:34;;;;;;;22.08;2.58;;;;;;;-142.75;100.00;75645.22;5014504;28;20038;-67
2023/04/12 09:45:17;;;;;;;19.88;2.20;;;;;;;-142.75;100.00;75641.28;5013945;28;20061;-68
2023/04/12 09:47:42;;;;;;;12.57;2.40;;;;;;;-142.75;100.00;75653.09;5013437;28;20374;-66
2023/04/12 09:50:18;;;;;;;10.65;1.75;;;;;;;-142.75;100.00;75664.91;5013805;28;20041;-66
2023/04/12 09:52:44;;;;;;;16.75;2.28;;;;;;;-142.75;100.00;75666.88;5013717;28;20052;-66
2023/04/12 09:55:10;;;;;;;15.77;2.40;;;;;;;-142.75;100.00;75649.16;5013481;28;20405;-66
2023/04/12 09:57:43;;;;;;;11.85;1.60;;;;;;;-142.75;100.00;75637.34;5013642;28;20033;-66
2023/04/12 10:00:17;;;;;;;15.48;2.03;;;;;;;-142.75;100.00;75657.03;5012677;28;20014;-66
2023/04/12 10:02:50;;;;;;;16.85;2.15;;;;;;;-142.75;100.00;75657.03;5013123;28;20025;-66
2023/04/12 10:05:18;;;;;;;8.63;1.58;;;;;;;-142.75;100.00;75660.97;5013013;28;20110;-66
2023/04/12 10:07:44;;;;;;;7.60;1.45;;;;;;;-142.75;100.00;75653.09;5012867;28;20540;-66
2023/04/12 10:10:11;;;;;;;13.48;2.15;;;;;;;-142.75;100.00;75662.94;5012718;28;20101;-67
2023/04/12 10:12:38;;;;;;;11.50;2.28;;;;;;;-142.75;100.00;75653.09;5012750;28;20028;-66
2023/04/12 10:15:06;;;;;;;13.93;1.98;;;;;;;-142.75;100.00;75629.47;5012633;28;20408;-66
2023/04/12 10:17:33;;;;;;;8.70;1.70;;;;;;;-142.75;100.00;75592.09;5012539;28;20092;-67
2023/04/12 10:20:00;;;;;;;9.20;1.70;;;;;;;-142.75;100.00;75535.00;5012457;28;20490;-66
2023/04/12 10:22:25;;;;;;;11.98;2.30;;;;;;;-142.75;100.00;75544.84;5012723;28;20036;-66
2023/04/12 10:24:51;;;;;;;12.00;1.55;;;;;;;-142.75;100.00;75501.56;5012706;28;20105;-67
2023/04/12 10:27:25;;;;;;;8.27;1.08;;;;;;;-142.75;100.00;75458.25;5012186;28;20026;-66
2023/04/12 10:29:50;;;;;;;12.18;1.30;;;;;;;-142.75;95.59;75418.91;5012721;28;20096;-67
2023/04/12 10:32:23;;;;;;;10.18;1.30;;;;;;;-142.75;93.33;75371.66;5012810;28;20034;-68
2023/04/12 10:34:53;;;;;;;7.45;1.20;;;;;;;-142.75;87.11;75316.56;5012814;28;20041;-65
2023/04/12 10:37:19;;;;;;;6.30;1.15;;;;;;;-142.75;78.26;75448.41;5012627;28;20017;-67
2023/04/12 10:39:51;;;;;;;11.25;1.10;;;;;;;-142.75;79.54;75436.59;5012427;28;20024;-66
2023/04/12 10:42:17;;;;;;;6.82;1.13;;;;;;;-142.75;78.97;75401.19;5012461;28;20026;-68
2023/04/12 10:44:43;;;;;;;5.10;0.88;;;;;;;-142.75;75.63;75409.06;5012626;28;20025;-67
2023/04/12 10:47:10;;;;;;;6.40;1.20;;;;;;;-142.75;76.25;75436.59;5012525;28;20028;-65
2023/04/12 10:49:36;;;;;;;7.65;1.20;;;;;;;-142.75;79.95;75448.41;5012457;28;20061;-66
2023/04/12 10:52:07;;;;;;;5.13;1.05;;;;;;;-142.75;79.02;75409.06;4995428;28;20025;-66
2023/04/12 10:54:34;;;;;;;8.75;1.60;;;;;;;-142.75;80.05;75389.38;5012611;28;20025;-66
2023/04/12 10:57:01;;;;;;;7.65;1.20;;;;;;;-142.75;78.24;75338.22;5012402;28;20030;-67
2023/04/12 10:59:50;;;;;;;8.32;1.13;;;;;;;-142.75;74.63;75357.91;5012666;28;20029;-66
2023/04/12 11:02:16;;;;;;;5.88;0.80;;;;;;;-142.75;69.04;75401.19;5012825;28;20105;-66
2023/04/12 11:05:18;;;;;;;4.35;1.05;;;;;;;-142.75;68.37;75393.31;5013006;28;20056;-66
2023/04/12 11:07:43;;;;;;;5.28;0.80;;;;;;;-142.75;72.18;75369.69;4951856;29;20035;-66